createdAt,value
2023-01-19T00:02:25.614Z,5.77
2023-01-19T00:04:52.299Z,4.73
2023-01-19T00:07:18.872Z,4.87
2023-01-19T00:09:45.499Z,5.53
2023-01-19T00:12:12.142Z,4.90
2023-01-19T00:14:38.724Z,4.17
2023-01-19T00:17:05.385Z,4.40
2023-01-19T00:19:32.019Z,6.20
2023-01-19T00:21:58.572Z,5.37
2023-01-19T00:24:25.176Z,5.13
2023-01-19T00:26:51.839Z,5.27
2023-01-19T00:29:18.509Z,5.33
2023-01-19T00:31:45.173Z,5.60
2023-01-19T00:34:11.732Z,5.03
2023-01-19T00:36:38.316Z,4.90
2023-01-19T00:39:04.874Z,5.60
2023-01-19T00:41:49.887Z,5.00
2023-01-19T00:44:16.512Z,5.27
2023-01-19T00:46:43.165Z,5.50
2023-01-19T00:49:09.863Z,5.13
2023-01-19T00:51:36.539Z,5.17
2023-01-19T00:54:05.048Z,4.67
2023-01-19T00:56:32.405Z,5.00
2023-01-19T00:59:00.037Z,4.40
2023-01-19T01:01:46.103Z,5.80
2023-01-19T01:04:13.693Z,4.57
2023-01-19T01:06:40.490Z,4.93
2023-01-19T01:09:12.110Z,6.03
2023-01-19T01:11:42.848Z,5.17
2023-01-19T01:14:11.598Z,4.80
2023-01-19T01:16:38.630Z,5.70
2023-01-19T01:19:05.274Z,5.77
2023-01-19T01:21:31.994Z,5.63
2023-01-19T01:23:58.557Z,4.63
2023-01-19T01:26:27.127Z,6.00
2023-01-19T01:28:54.551Z,5.37
2023-01-19T01:31:21.257Z,4.63
2023-01-19T01:33:47.895Z,5.13
2023-01-19T01:36:14.599Z,4.43
2023-01-19T01:38:41.726Z,5.53
2023-01-19T01:41:08.766Z,4.70
2023-01-19T01:44:08.309Z,5.63
2023-01-19T01:46:35.157Z,5.73
2023-01-19T01:49:06.150Z,5.60
2023-01-19T01:51:37.708Z,5.87
2023-01-19T01:54:04.235Z,4.83
2023-01-19T01:56:35.463Z,5.20
2023-01-19T01:59:06.987Z,5.47
2023-01-19T02:01:52.830Z,5.53
2023-01-19T02:04:19.752Z,5.30
2023-01-19T02:07:05.297Z,4.97
2023-01-19T02:09:51.444Z,5.73
2023-01-19T02:12:36.479Z,6.03
2023-01-19T02:15:03.205Z,5.40
2023-01-19T02:17:29.800Z,6.03
2023-01-19T02:19:57.952Z,5.53
2023-01-19T02:22:39.023Z,5.43
2023-01-19T02:25:06.415Z,5.33
2023-01-19T02:27:33.417Z,5.20
2023-01-19T02:30:00.612Z,5.23
2023-01-19T02:32:27.202Z,5.10
2023-01-19T02:34:54.074Z,5.53
2023-01-19T02:37:21.475Z,5.37
2023-01-19T02:39:51.843Z,4.03
2023-01-19T02:42:28.452Z,5.57
2023-01-19T02:44:57.178Z,6.00
2023-01-19T02:47:24.315Z,5.70
2023-01-19T02:49:58.073Z,5.00
2023-01-19T02:52:24.993Z,5.00
2023-01-19T02:55:15.447Z,6.20
2023-01-19T02:58:08.747Z,5.83
2023-01-19T03:00:46.362Z,5.87
2023-01-19T03:03:28.070Z,4.77
2023-01-19T03:06:36.718Z,5.50
2023-01-19T03:09:13.765Z,4.73
2023-01-19T03:11:42.426Z,6.07
2023-01-19T03:14:23.539Z,6.33
2023-01-19T03:16:55.335Z,5.23
2023-01-19T03:19:48.535Z,6.23
2023-01-19T03:22:27.226Z,5.80
2023-01-19T03:24:56.069Z,5.70
2023-01-19T03:27:26.631Z,5.47
2023-01-19T03:29:56.610Z,5.93
2023-01-19T03:32:29.805Z,5.40
2023-01-19T03:34:58.695Z,6.07
2023-01-19T03:37:26.237Z,4.80
2023-01-19T03:39:52.881Z,5.53
2023-01-19T03:42:19.764Z,6.20
2023-01-19T03:44:50.507Z,5.37
2023-01-19T03:47:17.673Z,6.60
2023-01-19T03:49:45.519Z,5.47
2023-01-19T03:52:12.945Z,6.53
2023-01-19T03:54:41.032Z,5.60
2023-01-19T03:57:07.987Z,6.70
2023-01-19T03:59:35.189Z,5.87
2023-01-19T04:02:01.919Z,6.17
2023-01-19T04:04:28.595Z,6.83
2023-01-19T04:06:55.137Z,7.07
2023-01-19T04:09:21.747Z,5.23
2023-01-19T04:11:48.385Z,6.27
2023-01-19T04:14:15.063Z,6.13
2023-01-19T04:16:41.619Z,5.87
2023-01-19T04:19:08.183Z,6.37
2023-01-19T04:21:35.270Z,5.83
2023-01-19T04:24:01.914Z,6.40
2023-01-19T04:26:28.867Z,5.87
2023-01-19T04:28:55.423Z,5.67
2023-01-19T04:31:23.362Z,6.13
2023-01-19T04:33:50.118Z,6.40
2023-01-19T04:36:16.680Z,5.93
2023-01-19T04:38:43.289Z,6.53
2023-01-19T04:41:10.013Z,5.57
2023-01-19T04:43:36.612Z,5.60
2023-01-19T04:46:03.411Z,6.40
2023-01-19T04:48:30.065Z,5.60
2023-01-19T04:50:56.665Z,5.70
2023-01-19T04:53:23.277Z,5.83
2023-01-19T04:55:54.899Z,6.43
2023-01-19T04:58:21.542Z,5.83
2023-01-19T05:00:48.555Z,6.73
2023-01-19T05:03:15.385Z,7.13
2023-01-19T05:05:41.960Z,6.70
2023-01-19T05:08:08.520Z,7.43
2023-01-19T05:10:36.654Z,6.80
2023-01-19T05:13:03.507Z,6.20
2023-01-19T05:15:30.244Z,6.53
2023-01-19T05:17:58.116Z,6.07
2023-01-19T05:20:25.339Z,5.47
2023-01-19T05:22:52.695Z,6.67
2023-01-19T05:25:20.286Z,6.73
2023-01-19T05:27:46.939Z,6.33
2023-01-19T05:30:13.971Z,6.10
2023-01-19T05:32:40.598Z,6.20
2023-01-19T05:35:07.807Z,6.70
2023-01-19T05:37:34.379Z,6.07
2023-01-19T05:40:00.950Z,6.63
2023-01-19T05:42:27.577Z,7.13
2023-01-19T05:44:54.310Z,7.07
2023-01-19T05:47:20.942Z,6.61
2023-01-19T05:49:47.641Z,7.43
2023-01-19T05:52:14.947Z,6.17
2023-01-19T05:54:41.529Z,7.50
2023-01-19T05:57:08.486Z,6.23
2023-01-19T05:59:35.267Z,7.20
2023-01-19T06:02:01.950Z,6.70
2023-01-19T06:04:28.557Z,6.70
2023-01-19T06:06:55.152Z,6.10
2023-01-19T06:09:21.854Z,6.93
2023-01-19T06:11:48.738Z,7.30
2023-01-19T06:14:15.363Z,7.00
2023-01-19T06:16:42.089Z,6.40
2023-01-19T06:19:08.751Z,7.20
2023-01-19T06:21:35.393Z,5.03
2023-01-19T06:24:02.066Z,6.63
2023-01-19T06:26:28.640Z,6.50
2023-01-19T06:28:55.470Z,7.33
2023-01-19T06:31:22.220Z,7.77
2023-01-19T06:33:48.846Z,6.57
2023-01-19T06:36:15.483Z,6.30
2023-01-19T06:38:42.064Z,5.70
2023-01-19T06:41:08.657Z,5.53
2023-01-19T06:43:35.335Z,7.57
2023-01-19T06:46:02.379Z,6.73
2023-01-19T06:48:29.043Z,6.87
2023-01-19T06:50:58.409Z,7.47
2023-01-19T06:53:27.808Z,8.90
2023-01-19T06:55:54.839Z,7.67
2023-01-19T06:58:21.609Z,5.17
2023-01-19T07:00:51.730Z,6.23
2023-01-19T07:03:20.878Z,5.50
2023-01-19T07:05:50.909Z,7.10
2023-01-19T07:08:17.535Z,6.23
2023-01-19T07:11:24.713Z,5.17
2023-01-19T07:13:31.046Z,6.50
2023-01-19T07:15:57.786Z,6.23
2023-01-19T07:18:24.379Z,6.60
2023-01-19T07:20:50.978Z,6.93
2023-01-19T07:23:17.654Z,6.20
2023-01-19T07:25:47.424Z,6.67
2023-01-19T07:28:16.042Z,6.80
2023-01-19T07:30:43.646Z,7.63
2023-01-19T07:33:10.367Z,7.23
2023-01-19T07:35:37.008Z,7.50
2023-01-19T07:38:03.903Z,6.53
2023-01-19T07:40:30.721Z,5.93
2023-01-19T07:42:57.378Z,6.27
2023-01-19T07:45:23.942Z,5.97
2023-01-19T07:47:51.187Z,7.10
2023-01-19T07:50:21.392Z,4.97
2023-01-19T07:52:50.790Z,6.30
2023-01-19T07:55:17.653Z,7.33
2023-01-19T07:57:44.321Z,6.33
2023-01-19T08:00:11.647Z,6.80
2023-01-19T08:02:38.467Z,6.43
2023-01-19T08:05:05.460Z,6.53
2023-01-19T08:07:33.642Z,5.93
2023-01-19T08:10:00.307Z,6.83
2023-01-19T08:12:27.062Z,6.20
2023-01-19T08:14:53.836Z,6.47
2023-01-19T08:17:20.386Z,7.30
2023-01-19T08:19:47.101Z,6.63
2023-01-19T08:22:13.745Z,6.37
2023-01-19T08:24:40.336Z,5.90
2023-01-19T08:27:07.097Z,6.17
2023-01-19T08:29:33.867Z,6.37
2023-01-19T08:32:02.791Z,5.43
2023-01-19T08:34:33.068Z,6.33
2023-01-19T08:36:59.774Z,6.50
2023-01-19T08:39:27.482Z,7.00
2023-01-19T08:41:54.313Z,7.17
2023-01-19T08:44:20.949Z,6.60
2023-01-19T08:47:03.903Z,6.60
2023-01-19T08:49:30.572Z,7.00
2023-01-19T08:51:57.138Z,6.10
2023-01-19T08:54:24.263Z,6.83
2023-01-19T08:56:50.840Z,6.60
2023-01-19T08:59:17.978Z,5.67
2023-01-19T09:01:44.892Z,7.47
2023-01-19T09:04:11.673Z,7.33
2023-01-19T09:06:38.276Z,7.03
2023-01-19T09:09:04.923Z,6.50
2023-01-19T09:11:31.559Z,5.80
2023-01-19T09:13:58.170Z,6.80
2023-01-19T09:16:27.178Z,5.60
2023-01-19T09:18:54.234Z,6.07
2023-01-19T09:21:20.850Z,6.27
2023-01-19T09:23:49.268Z,5.73
2023-01-19T09:26:16.706Z,6.73
2023-01-19T09:28:43.303Z,5.67
2023-01-19T09:31:09.993Z,6.17
2023-01-19T09:33:36.750Z,5.77
2023-01-19T09:36:03.528Z,6.13
2023-01-19T09:38:32.860Z,5.60
2023-01-19T09:41:00.887Z,5.07
2023-01-19T09:43:39.648Z,6.10
2023-01-19T09:46:15.953Z,5.90
2023-01-19T09:48:51.838Z,5.60
2023-01-19T09:51:18.407Z,6.43
2023-01-19T09:53:53.345Z,5.73
2023-01-19T09:56:21.194Z,5.67
2023-01-19T09:58:49.111Z,6.03
2023-01-19T10:01:15.766Z,5.83
2023-01-19T10:03:42.512Z,5.67
2023-01-19T10:06:12.037Z,5.43
2023-01-19T10:08:57.476Z,5.63
2023-01-19T10:11:46.688Z,6.43
2023-01-19T10:14:38.673Z,4.37
2023-01-19T10:17:24.495Z,6.93
2023-01-19T10:19:54.116Z,5.63
2023-01-19T10:22:25.811Z,5.67
2023-01-19T10:25:06.156Z,5.80
2023-01-19T10:27:34.957Z,5.60
2023-01-19T10:30:02.115Z,5.33
2023-01-19T10:32:35.851Z,4.93
2023-01-19T10:35:14.441Z,5.30
2023-01-19T10:37:42.080Z,4.23
2023-01-19T10:40:11.797Z,5.33
2023-01-19T10:42:40.577Z,5.23
2023-01-19T10:45:16.278Z,5.53
2023-01-19T10:47:44.732Z,5.10
2023-01-19T10:50:28.047Z,6.20
2023-01-19T10:52:57.132Z,5.27
2023-01-19T10:55:42.704Z,5.07
2023-01-19T10:58:30.711Z,5.13
2023-01-19T11:01:19.954Z,5.73
2023-01-19T11:03:46.690Z,5.20
2023-01-19T11:06:16.298Z,5.03
2023-01-19T11:08:51.888Z,4.99
2023-01-19T11:11:23.655Z,5.67
2023-01-19T11:14:23.301Z,4.23
2023-01-19T11:16:55.076Z,5.07
2023-01-19T11:19:26.282Z,4.27
2023-01-19T11:21:53.597Z,4.73
2023-01-19T11:24:20.549Z,5.10
2023-01-19T11:26:50.696Z,5.23
2023-01-19T11:29:21.776Z,5.03
2023-01-19T11:31:49.212Z,5.53
2023-01-19T11:34:34.665Z,4.57
2023-01-19T11:37:03.566Z,5.60
2023-01-19T11:39:32.805Z,5.13
2023-01-19T11:42:01.936Z,4.70
2023-01-19T11:44:32.927Z,5.50
2023-01-19T11:47:01.467Z,5.13
2023-01-19T11:49:37.761Z,4.50
2023-01-19T11:52:20.588Z,4.00
2023-01-19T11:55:17.709Z,4.70
2023-01-19T11:57:47.255Z,4.97
2023-01-19T12:00:24.072Z,4.47
2023-01-19T12:02:54.650Z,4.00
2023-01-19T12:05:22.760Z,5.27
2023-01-19T12:07:50.369Z,4.57
2023-01-19T12:10:25.852Z,4.83
2023-01-19T12:12:53.913Z,4.10
2023-01-19T12:15:44.572Z,4.23
2023-01-19T12:18:27.297Z,4.93
2023-01-19T12:20:55.251Z,3.93
2023-01-19T12:23:25.961Z,4.20
2023-01-19T12:26:20.931Z,3.70
2023-01-19T12:28:49.477Z,3.90
2023-01-19T12:31:17.417Z,4.23
2023-01-19T12:33:44.411Z,4.23
2023-01-19T12:36:35.604Z,4.17
2023-01-19T12:39:04.754Z,3.80
2023-01-19T12:41:36.458Z,4.47
2023-01-19T12:44:12.388Z,4.10
2023-01-19T12:46:41.038Z,4.50
2023-01-19T12:49:21.823Z,4.37
2023-01-19T12:51:49.860Z,3.70
2023-01-19T12:54:31.814Z,4.13
2023-01-19T12:57:25.905Z,5.13
2023-01-19T12:59:57.398Z,4.03
2023-01-19T13:02:23.984Z,3.63
2023-01-19T13:05:13.630Z,3.70
2023-01-19T13:08:02.111Z,4.13
2023-01-19T13:10:53.359Z,3.60
2023-01-19T13:13:27.384Z,3.60
2023-01-19T13:15:55.853Z,3.53
2023-01-19T13:18:29.589Z,4.13
2023-01-19T13:20:56.115Z,3.50
2023-01-19T13:23:27.857Z,4.10
2023-01-19T13:26:02.002Z,3.50
2023-01-19T13:28:33.264Z,3.97
2023-01-19T13:31:02.707Z,3.23
2023-01-19T13:33:52.564Z,2.33
2023-01-19T13:36:30.895Z,3.73
2023-01-19T13:39:00.281Z,3.93
2023-01-19T13:41:29.751Z,3.63
2023-01-19T13:44:02.467Z,3.20
2023-01-19T13:46:30.688Z,3.40
2023-01-19T13:49:00.135Z,4.00
2023-01-19T13:51:27.091Z,3.27
2023-01-19T13:53:57.844Z,3.20
2023-01-19T13:56:28.510Z,3.20
2023-01-19T13:59:12.543Z,3.70
2023-01-19T14:01:41.656Z,3.47
2023-01-19T14:04:28.946Z,3.60
2023-01-19T14:07:01.388Z,3.00
2023-01-19T14:09:28.302Z,3.93
2023-01-19T14:12:09.845Z,3.53
2023-01-19T14:14:36.591Z,2.37
2023-01-19T14:17:04.016Z,3.03
2023-01-19T14:19:47.675Z,2.90
2023-01-19T14:22:14.346Z,2.80
2023-01-19T14:24:41.060Z,3.40
2023-01-19T14:27:09.645Z,3.40
2023-01-19T14:29:38.087Z,3.10
2023-01-19T14:32:06.134Z,3.00
2023-01-19T14:35:05.146Z,2.93
2023-01-19T14:37:36.790Z,2.57
2023-01-19T14:40:11.290Z,3.00
2023-01-19T14:43:00.136Z,2.97
2023-01-19T14:45:42.791Z,3.20
2023-01-19T14:48:17.885Z,3.17
2023-01-19T14:50:57.655Z,2.90
2023-01-19T14:53:29.896Z,3.00
2023-01-19T14:56:01.209Z,2.53
2023-01-19T14:58:31.724Z,2.90
2023-01-19T15:00:58.429Z,2.33
2023-01-19T15:03:34.961Z,2.20
2023-01-19T15:06:20.376Z,3.00
2023-01-19T15:08:48.840Z,2.33
2023-01-19T15:11:23.435Z,2.90
2023-01-19T15:13:50.768Z,2.80
2023-01-19T15:16:17.511Z,2.70
2023-01-19T15:18:44.110Z,2.53
2023-01-19T15:21:15.567Z,2.40
2023-01-19T15:23:42.236Z,3.20
2023-01-19T15:26:12.951Z,2.50
2023-01-19T15:28:39.600Z,2.80
2023-01-19T15:31:06.241Z,2.50
2023-01-19T15:33:32.852Z,2.83
2023-01-19T15:35:59.560Z,2.67
2023-01-19T15:38:26.645Z,2.63
2023-01-19T15:40:53.299Z,2.57
2023-01-19T15:43:21.124Z,2.30
2023-01-19T15:45:56.943Z,2.70
2023-01-19T15:48:23.737Z,3.37
2023-01-19T15:50:50.412Z,3.13
2023-01-19T15:53:19.930Z,3.10
2023-01-19T15:55:50.998Z,2.20
2023-01-19T15:58:18.593Z,3.20
2023-01-19T16:00:45.238Z,3.10
2023-01-19T16:03:11.895Z,3.60
2023-01-19T16:05:43.387Z,2.93
2023-01-19T16:08:11.626Z,3.07
2023-01-19T16:10:38.410Z,3.07
2023-01-19T16:13:05.020Z,3.87
2023-01-19T16:15:31.631Z,2.50
2023-01-19T16:17:58.479Z,3.27
2023-01-19T16:20:25.066Z,2.70
2023-01-19T16:22:51.675Z,3.00
2023-01-19T16:25:18.231Z,2.77
2023-01-19T16:27:44.844Z,2.97
2023-01-19T16:30:12.650Z,2.47
2023-01-19T16:32:39.411Z,3.00
2023-01-19T16:35:06.463Z,2.83
2023-01-19T16:37:33.230Z,3.23
2023-01-19T16:39:59.884Z,3.30
2023-01-19T16:42:26.516Z,3.53
2023-01-19T16:44:54.593Z,3.30
2023-01-19T16:47:21.405Z,3.67
2023-01-19T16:49:47.982Z,3.67
2023-01-19T16:52:14.563Z,3.30
2023-01-19T16:54:43.042Z,3.77
2023-01-19T16:57:10.457Z,2.93
2023-01-19T16:59:37.494Z,3.63
2023-01-19T17:02:04.192Z,3.30
2023-01-19T17:04:30.999Z,3.10
2023-01-19T17:06:57.601Z,3.43
2023-01-19T17:09:24.166Z,2.93
2023-01-19T17:11:50.740Z,2.67
2023-01-19T17:14:22.286Z,3.17
2023-01-19T17:16:49.512Z,2.50
2023-01-19T17:19:20.129Z,2.97
2023-01-19T17:21:48.935Z,3.10
2023-01-19T17:24:16.118Z,2.53
2023-01-19T17:26:45.864Z,3.30
2023-01-19T17:29:12.594Z,2.67
2023-01-19T17:31:39.272Z,2.77
2023-01-19T17:34:06.156Z,2.50
2023-01-19T17:36:33.109Z,3.60
2023-01-19T17:39:04.489Z,2.70
2023-01-19T17:41:33.033Z,3.67
2023-01-19T17:44:00.570Z,3.10
2023-01-19T17:46:28.360Z,3.10
2023-01-19T17:49:01.764Z,3.17
2023-01-19T17:51:29.077Z,2.70
2023-01-19T17:53:56.251Z,2.77
2023-01-19T17:56:29.763Z,3.10
2023-01-19T17:58:57.669Z,3.60
2023-01-19T18:01:29.052Z,2.70
2023-01-19T18:03:56.321Z,3.50
2023-01-19T18:06:22.986Z,3.70
2023-01-19T18:08:49.949Z,2.50
2023-01-19T18:11:19.121Z,2.87
2023-01-19T18:13:46.574Z,3.13
2023-01-19T18:16:15.665Z,3.63
2023-01-19T18:18:44.129Z,3.73
2023-01-19T18:21:13.221Z,3.43
2023-01-19T18:23:43.293Z,3.30
2023-01-19T18:26:12.710Z,2.70
2023-01-19T18:28:39.327Z,2.93
2023-01-19T18:31:15.121Z,3.50
2023-01-19T18:33:42.069Z,2.77
2023-01-19T18:36:11.385Z,3.00
2023-01-19T18:38:39.485Z,2.47
2023-01-19T18:41:14.790Z,2.80
2023-01-19T18:43:41.573Z,2.73
2023-01-19T18:46:08.548Z,2.57
2023-01-19T18:48:35.395Z,2.73
2023-01-19T18:51:12.729Z,2.70
2023-01-19T18:53:39.569Z,2.53
2023-01-19T18:56:06.887Z,3.10
2023-01-19T18:58:34.549Z,3.03
2023-01-19T19:01:01.754Z,3.07
2023-01-19T19:03:28.775Z,3.60
2023-01-19T19:05:55.590Z,2.80
2023-01-19T19:08:22.312Z,2.60
2023-01-19T19:10:48.938Z,2.27
2023-01-19T19:13:16.445Z,3.07
2023-01-19T19:15:44.460Z,3.00
2023-01-19T19:18:13.847Z,2.93
2023-01-19T19:20:42.180Z,3.00
2023-01-19T19:23:09.122Z,2.70
2023-01-19T19:25:35.776Z,2.63
2023-01-19T19:28:02.910Z,2.63
2023-01-19T19:30:29.822Z,3.20
2023-01-19T19:32:56.946Z,3.37
2023-01-19T19:35:24.015Z,2.77
2023-01-19T19:37:51.581Z,2.93
2023-01-19T19:40:18.368Z,2.93
2023-01-19T19:42:45.079Z,2.87
2023-01-19T19:45:12.410Z,2.83
2023-01-19T19:47:39.028Z,2.50
2023-01-19T19:50:06.599Z,3.17
2023-01-19T19:52:38.218Z,2.73
2023-01-19T19:55:06.596Z,2.57
2023-01-19T19:57:33.188Z,3.60
2023-01-19T19:59:59.787Z,2.70
2023-01-19T20:02:26.453Z,3.03
2023-01-19T20:04:53.061Z,4.57
2023-01-19T20:07:19.684Z,2.70
2023-01-19T20:09:46.438Z,2.93
2023-01-19T20:12:13.019Z,2.77
2023-01-19T20:14:39.618Z,2.97
2023-01-19T20:17:06.184Z,2.80
2023-01-19T20:19:32.806Z,2.83
2023-01-19T20:21:59.589Z,3.33
2023-01-19T20:24:26.186Z,4.70
2023-01-19T20:26:53.218Z,3.10
2023-01-19T20:29:20.383Z,3.20
2023-01-19T20:31:53.113Z,2.70
2023-01-19T20:34:21.669Z,2.80
2023-01-19T20:36:50.305Z,2.53
2023-01-19T20:39:18.429Z,2.40
2023-01-19T20:41:45.686Z,2.67
2023-01-19T20:44:14.826Z,3.07
2023-01-19T20:46:41.881Z,3.03
2023-01-19T20:49:08.476Z,2.63
2023-01-19T20:51:36.032Z,3.07
2023-01-19T20:54:02.693Z,2.57
2023-01-19T20:56:29.302Z,3.37
2023-01-19T20:58:55.917Z,2.97
2023-01-19T21:01:24.591Z,3.57
2023-01-19T21:03:51.871Z,2.93
2023-01-19T21:06:19.907Z,3.50
2023-01-19T21:08:49.683Z,2.20
2023-01-19T21:11:18.844Z,2.50
2023-01-19T21:13:45.426Z,2.93
2023-01-19T21:16:12.220Z,2.23
2023-01-19T21:18:38.833Z,2.77
2023-01-19T21:21:05.582Z,2.70
2023-01-19T21:23:32.161Z,2.77
2023-01-19T21:25:59.986Z,3.13
2023-01-19T21:28:27.831Z,3.10
2023-01-19T21:30:55.549Z,4.20
2023-01-19T21:33:22.693Z,2.67
2023-01-19T21:35:57.280Z,2.80
2023-01-19T21:38:28.883Z,7.77
2023-01-19T21:40:56.999Z,6.13
2023-01-19T21:43:24.600Z,7.63
2023-01-19T21:45:51.316Z,7.00
2023-01-19T21:48:18.099Z,10.23
2023-01-19T21:50:44.798Z,8.07
2023-01-19T21:53:11.806Z,7.90
2023-01-19T21:55:43.365Z,5.40
2023-01-19T21:58:10.126Z,6.60
2023-01-19T22:00:36.730Z,4.63
2023-01-19T22:03:04.647Z,6.47
2023-01-19T22:05:36.706Z,5.03
2023-01-19T22:08:04.901Z,5.80
2023-01-19T22:10:31.513Z,6.63
2023-01-19T22:12:58.081Z,7.40
2023-01-19T22:15:24.798Z,4.87
2023-01-19T22:17:51.401Z,4.57
2023-01-19T22:20:18.075Z,3.10
2023-01-19T22:22:44.671Z,2.77
2023-01-19T22:25:11.513Z,2.50
2023-01-19T22:27:38.867Z,2.50
2023-01-19T22:30:06.083Z,2.50
2023-01-19T22:32:32.711Z,2.70
2023-01-19T22:34:59.360Z,2.20
2023-01-19T22:37:25.947Z,2.67
2023-01-19T22:39:53.228Z,2.20
2023-01-19T22:42:19.841Z,2.30
2023-01-19T22:44:46.965Z,3.60
2023-01-19T22:47:13.582Z,4.27
2023-01-19T22:49:40.737Z,3.43
2023-01-19T22:52:07.409Z,3.90
2023-01-19T22:54:34.360Z,4.43
2023-01-19T22:57:01.108Z,4.93
2023-01-19T22:59:27.727Z,4.70
2023-01-19T23:01:54.458Z,4.37
2023-01-19T23:04:21.229Z,3.57
2023-01-19T23:06:50.556Z,4.03
2023-01-19T23:09:17.648Z,3.57
2023-01-19T23:11:50.257Z,4.03
2023-01-19T23:14:19.403Z,3.37
2023-01-19T23:16:47.272Z,3.60
2023-01-19T23:19:14.531Z,3.87
2023-01-19T23:21:41.294Z,4.07
2023-01-19T23:24:08.129Z,3.77
2023-01-19T23:26:40.571Z,3.77
2023-01-19T23:29:10.301Z,4.50
2023-01-19T23:31:38.525Z,3.63
2023-01-19T23:34:07.001Z,3.43
2023-01-19T23:36:36.121Z,3.13
2023-01-19T23:39:06.292Z,3.37
2023-01-19T23:41:36.804Z,3.40
2023-01-19T23:44:04.289Z,2.77
2023-01-19T23:46:31.239Z,3.37
2023-01-19T23:48:57.889Z,2.70
2023-01-19T23:51:26.822Z,2.90
2023-01-19T23:53:53.513Z,3.37
2023-01-19T23:56:25.002Z,3.87
2023-01-19T23:58:57.134Z,2.53
